^^
Meteo Knjazevac Station Historical Data
Daily Summary for August 06, 2022 Units:  Metric    English   Both
Daily Weekly Monthly Yearly Custom
  High: Low: Average:
Temperature: 35.9 °C 13.9 °C 25.5 °C
Dew Point: 19.1 °C 12.2 °C 15.7 °C
Humidity: 90% 33.3% 59%
Wind Speed: 19.2km/h 0km/h 6.8km/h
Wind Gust: 22.5km/h - -
Wind- - SSW
Pressure: 1015.8 hPa 1012.8 hPa -
Precipitation: 0 mm    
Historical Graphs
 
 
Tabular Data for August 06, 2022
Time Temperature Dew Point Pressure Wind Wind Speed Wind Gust Humidity Rainfall Rate (Hourly) solar Conditions
00:04 18.9 °C 14 °C 1015.5 hPa WSW 0.6 km/h 0.6 km/h 73.3% 0 mm 0 W/m2
00:09 18.7 °C 14 °C 1015.1 hPa West 1.9 km/h 1.6 km/h 74% 0 mm 0 W/m2
00:14 18.6 °C 13.9 °C 1015.1 hPa West 1.6 km/h 0.3 km/h 74% 0 mm 0 W/m2
00:19 18.5 °C 13.8 °C 1015.5 hPa NW 3.5 km/h 3.2 km/h 74.4% 0 mm 0 W/m2
00:24 18.4 °C 13.9 °C 1015.5 hPa NW 3.9 km/h 3.2 km/h 75% 0 mm 0 W/m2
00:29 18.3 °C 13.8 °C 1015.1 hPa WNW 5.3 km/h 6.4 km/h 75% 0 mm 0 W/m2
00:34 18.2 °C 13.7 °C 1015.5 hPa West 3.7 km/h 6.4 km/h 75% 0 mm 0 W/m2
00:39 18.2 °C 13.7 °C 1015.1 hPa WNW 3.7 km/h 3.2 km/h 75% 0 mm 0 W/m2
00:44 18.1 °C 13.6 °C 1015.1 hPa NW 0.8 km/h 3.2 km/h 75.3% 0 mm 0 W/m2
00:49 17.9 °C 13.8 °C 1015.5 hPa NW 1 km/h 1.6 km/h 77% 0 mm 0 W/m2
00:54 17.8 °C 13.8 °C 1015.5 hPa NW 1.9 km/h 1.6 km/h 77% 0 mm 0 W/m2
00:59 17.8 °C 13.8 °C 1015.1 hPa NNW 1.4 km/h 3.2 km/h 77.3% 0 mm 0 W/m2
01:04 17.7 °C 13.8 °C 1015.1 hPa NNW 1.9 km/h 1.6 km/h 77.7% 0 mm 0 W/m2
01:09 17.6 °C 13.7 °C 1015.1 hPa NW 1.8 km/h 3.2 km/h 77.8% 0 mm 0 W/m2
01:14 17.4 °C 13.6 °C 1015.5 hPa NW 1.3 km/h 3.2 km/h 78% 0 mm 0 W/m2
01:19 17.3 °C 13.4 °C 1015.5 hPa NNW 2.3 km/h 3.2 km/h 78% 0 mm 0 W/m2
01:24 17.1 °C 13.4 °C 1015.1 hPa WNW 3.1 km/h 3.2 km/h 78.9% 0 mm 0 W/m2
01:29 16.9 °C 13.3 °C 1015.5 hPa WNW 3.5 km/h 3.2 km/h 79% 0 mm 0 W/m2
01:34 16.9 °C 13.2 °C 1015.1 hPa West 5.5 km/h 4.3 km/h 79% 0 mm 0 W/m2
01:39 16.8 °C 13.2 °C 1015.1 hPa West 5 km/h 6.4 km/h 79% 0 mm 0 W/m2
01:44 16.8 °C 13.1 °C 1015.1 hPa West 4.2 km/h 2.9 km/h 79% 0 mm 0 W/m2
01:49 16.7 °C 13.1 °C 1015.5 hPa West 3.7 km/h 2.6 km/h 79.3% 0 mm 0 W/m2
01:54 16.7 °C 13.2 °C 1015.5 hPa WSW 3.5 km/h 3.2 km/h 79.8% 0 mm 0 W/m2
01:59 16.6 °C 13.1 °C 1015.5 hPa West 2.7 km/h 3.2 km/h 80% 0 mm 0 W/m2
02:04 16.5 °C 13.1 °C 1015.5 hPa WNW 2.3 km/h 3.2 km/h 80% 0 mm 0 W/m2
02:09 16.3 °C 13 °C 1015.5 hPa West 3.4 km/h 2.6 km/h 80.6% 0 mm 0 W/m2
02:14 16.2 °C 13 °C 1015.5 hPa WNW 2.9 km/h 3.2 km/h 81% 0 mm 0 W/m2
02:19 16.2 °C 12.9 °C 1015.5 hPa WNW 3.7 km/h 3.2 km/h 81% 0 mm 0 W/m2
02:24 16.1 °C 13.1 °C 1015.5 hPa West 4 km/h 2.9 km/h 82.4% 0 mm 0 W/m2
02:29 16.1 °C 13.2 °C 1015.5 hPa West 2.9 km/h 4.8 km/h 83% 0 mm 0 W/m2
02:34 16 °C 13.1 °C 1015.5 hPa West 2.9 km/h 4 km/h 83% 0 mm 0 W/m2
02:39 15.9 °C 13 °C 1015.5 hPa WNW 4.7 km/h 4.8 km/h 83% 0 mm 0 W/m2
02:44 15.9 °C 13 °C 1015.5 hPa WNW 4.3 km/h 4 km/h 83% 0 mm 0 W/m2
02:49 15.9 °C 13 °C 1015.5 hPa WNW 3.4 km/h 4.8 km/h 83% 0 mm 0 W/m2
02:54 15.8 °C 12.9 °C 1015.5 hPa WNW 3.5 km/h 3.2 km/h 83% 0 mm 0 W/m2
02:59 15.7 °C 12.9 °C 1015.5 hPa West 4.3 km/h 3.5 km/h 83.4% 0 mm 0 W/m2
03:04 15.7 °C 12.9 °C 1015.5 hPa West 3.7 km/h 3.2 km/h 84% 0 mm 0 W/m2
03:09 15.6 °C 12.9 °C 1015.5 hPa West 3.7 km/h 3.2 km/h 84% 0 mm 0 W/m2
03:13 15.6 °C 12.9 °C 1015.5 hPa West 3.5 km/h 3.2 km/h 84% 0 mm 0 W/m2
03:19 15.4 °C 12.8 °C 1015.5 hPa West 4.5 km/h 3.5 km/h 84% 0 mm 0 W/m2
03:24 15.4 °C 12.7 °C 1015.5 hPa West 4.5 km/h 4.8 km/h 84% 0 mm 0 W/m2
03:29 15.3 °C 12.6 °C 1015.5 hPa WSW 3.7 km/h 4.8 km/h 84% 0 mm 0 W/m2
03:34 15.2 °C 12.7 °C 1015.5 hPa WSW 3.7 km/h 3.2 km/h 84.8% 0 mm 0 W/m2
03:39 15.1 °C 12.6 °C 1015.5 hPa WSW 5.6 km/h 4.8 km/h 85% 0 mm 0 W/m2
03:44 15.1 °C 12.6 °C 1015.5 hPa West 5.8 km/h 6.4 km/h 85% 0 mm 0 W/m2
03:49 15.1 °C 12.7 °C 1015.1 hPa West 7.2 km/h 5 km/h 85.3% 0 mm 0 W/m2
03:54 15.2 °C 12.8 °C 1015.1 hPa West 6.9 km/h 8 km/h 85.5% 0 mm 0 W/m2
03:59 15.2 °C 12.7 °C 1015.1 hPa West 5.6 km/h 8 km/h 85% 0 mm 0 W/m2
04:04 15.2 °C 12.7 °C 1015.1 hPa WSW 4.7 km/h 4.8 km/h 85% 0 mm 0 W/m2
04:09 15.2 °C 12.6 °C 1015.1 hPa West 4.2 km/h 4.8 km/h 85% 0 mm 0 W/m2
04:14 15.1 °C 12.7 °C 1015.1 hPa West 5.5 km/h 4.8 km/h 85.5% 0 mm 0 W/m2
04:19 15.1 °C 12.8 °C 1015.1 hPa WNW 5.3 km/h 4.3 km/h 86% 0 mm 0 W/m2
04:24 15.1 °C 12.7 °C 1015.1 hPa West 4.2 km/h 4.8 km/h 85.4% 0 mm 0 W/m2
04:29 15 °C 12.6 °C 1015.1 hPa West 3.7 km/h 4.8 km/h 85.5% 0 mm 0 W/m2
04:34 15 °C 12.7 °C 1015.1 hPa West 3.7 km/h 3.2 km/h 86% 0 mm 0 W/m2
04:39 14.9 °C 12.6 °C 1015.1 hPa West 3.4 km/h 2.6 km/h 86% 0 mm 0 W/m2
04:44 14.8 °C 12.5 °C 1015.1 hPa West 3.7 km/h 3.2 km/h 86% 0 mm 0 W/m2
04:49 14.7 °C 12.4 °C 1015.1 hPa West 4 km/h 3.2 km/h 86% 0 mm 0 W/m2
04:54 14.6 °C 12.3 °C 1015.1 hPa West 6 km/h 6.4 km/h 86% 0 mm 0 W/m2
04:59 14.6 °C 12.4 °C 1015.1 hPa West 5.3 km/h 8 km/h 87.1% 0 mm 0 W/m2
05:04 14.6 °C 12.6 °C 1015.1 hPa WSW 3.7 km/h 8 km/h 88% 0 mm 0 W/m2
05:09 14.5 °C 12.6 °C 1015.5 hPa WSW 3.9 km/h 3.2 km/h 88% 0 mm 0 W/m2
05:14 14.4 °C 12.4 °C 1015.5 hPa WSW 5.1 km/h 4.8 km/h 88% 0 mm 1 W/m2
05:19 14.4 °C 12.4 °C 1015.5 hPa West 4.7 km/h 4.8 km/h 88% 0 mm 2 W/m2
05:24 14.3 °C 12.4 °C 1015.5 hPa West 3.4 km/h 4.8 km/h 88.5% 0 mm 3 W/m2
05:29 14.3 °C 12.6 °C 1015.5 hPa WNW 1.9 km/h 3.2 km/h 89% 0 mm 6 W/m2
05:34 14.3 °C 12.5 °C 1015.5 hPa NW 1.6 km/h 3.2 km/h 89% 0 mm 8 W/m2
05:39 14.3 °C 12.5 °C 1015.5 hPa NW 2.3 km/h 1.8 km/h 89% 0 mm 11 W/m2
05:44 14.2 °C 12.4 °C 1015.5 hPa West 2.9 km/h 3.2 km/h 89% 0 mm 15 W/m2
05:49 14.2 °C 12.3 °C 1015.5 hPa WNW 2.1 km/h 3.2 km/h 89% 0 mm 19 W/m2
05:54 14.1 °C 12.3 °C 1015.5 hPa NW 2.9 km/h 3.2 km/h 89% 0 mm 24 W/m2
05:59 14.1 °C 12.3 °C 1015.5 hPa NW 2.6 km/h 3.2 km/h 89% 0 mm 29 W/m2
06:04 14 °C 12.2 °C 1015.5 hPa WNW 3.7 km/h 3.2 km/h 89% 0 mm 37 W/m2
06:09 13.9 °C 12.3 °C 1015.5 hPa West 4.5 km/h 3.2 km/h 89.7% 0 mm 49 W/m2
06:14 13.9 °C 12.3 °C 1015.5 hPa West 4.2 km/h 4.8 km/h 90% 0 mm 58 W/m2
06:19 14 °C 12.4 °C 1015.5 hPa West 5.5 km/h 6.4 km/h 90% 0 mm 68 W/m2
06:24 14.1 °C 12.5 °C 1015.5 hPa West 5.8 km/h 6.4 km/h 90% 0 mm 78 W/m2
06:29 14.2 °C 12.6 °C 1015.8 hPa West 5.6 km/h 6.4 km/h 90% 0 mm 88 W/m2
06:34 14.3 °C 12.7 °C 1015.8 hPa West 5.6 km/h 4.8 km/h 90% 0 mm 100 W/m2
06:39 14.6 °C 12.9 °C 1015.8 hPa WNW 4.3 km/h 6.4 km/h 90% 0 mm 113 W/m2
06:44 14.7 °C 13 °C 1015.8 hPa NW 3.5 km/h 1.4 km/h 89.3% 0 mm 124 W/m2
06:49 14.8 °C 13.1 °C 1015.8 hPa NW 0.2 km/h 3.2 km/h 89% 0 mm 139 W/m2
06:54 14.9 °C 13.2 °C 1015.8 hPa Calm     89.2% 0 mm 151 W/m2
06:59 15 °C 13.2 °C 1015.8 hPa Calm     89% 0 mm 166 W/m2
07:04 15.1 °C 13.3 °C 1015.8 hPa Calm     89% 0 mm 180 W/m2
07:09 15.2 °C 13.4 °C 1015.8 hPa North 1.3 km/h 0.6 km/h 89% 0 mm 195 W/m2
07:14 15.3 °C 13.6 °C 1015.8 hPa NNW 1.9 km/h 1.6 km/h 88.9% 0 mm 210 W/m2
07:19 15.6 °C 13.7 °C 1015.8 hPa WNW 2.4 km/h 1.8 km/h 88.4% 0 mm 226 W/m2
07:24 15.8 °C 13.8 °C 1015.8 hPa WNW 3.7 km/h 3.2 km/h 88% 0 mm 241 W/m2
07:29 15.9 °C 13.9 °C 1015.8 hPa WNW 6.3 km/h 3.5 km/h 88% 0 mm 255 W/m2
07:34 16.3 °C 14.3 °C 1015.8 hPa NW 4.3 km/h 8 km/h 88% 0 mm 273 W/m2
07:39 16.5 °C 14.2 °C 1015.8 hPa NW 3.1 km/h 4.8 km/h 86.4% 0 mm 288 W/m2
07:44 16.9 °C 14.4 °C 1015.8 hPa WNW 2.1 km/h 3.2 km/h 85.3% 0 mm 306 W/m2
07:49 17.3 °C 14.6 °C 1015.8 hPa WSW 3.4 km/h 3.2 km/h 84% 0 mm 323 W/m2
07:54 17.6 °C 14.9 °C 1015.8 hPa WSW 2.7 km/h 3.2 km/h 84.2% 0 mm 342 W/m2
07:59 17.9 °C 15 °C 1015.8 hPa West 3.1 km/h 3.2 km/h 83.3% 0 mm 361 W/m2
08:04 18.2 °C 15.2 °C 1015.8 hPa West 3.7 km/h 3.2 km/h 82.5% 0 mm 379 W/m2
08:09 18.5 °C 15.1 °C 1015.8 hPa WSW 3.7 km/h 3.2 km/h 80.8% 0 mm 397 W/m2
08:14 18.9 °C 15.3 °C 1015.8 hPa SW 3.2 km/h 3.2 km/h 79.5% 0 mm 414 W/m2
08:19 19.3 °C 15.6 °C 1015.8 hPa SW 3.4 km/h 3.2 km/h 79.3% 0 mm 430 W/m2
08:24 19.7 °C 15.7 °C 1015.8 hPa SW 3.2 km/h 3.2 km/h 78.2% 0 mm 448 W/m2
08:29 20 °C 15.9 °C 1015.8 hPa SW 2.1 km/h 3.2 km/h 77.4% 0 mm 463 W/m2
08:34 20.8 °C 16.3 °C 1015.8 hPa SW 1.9 km/h 1.1 km/h 75.2% 0 mm 477 W/m2
08:39 21.6 °C 16.5 °C 1015.8 hPa WSW 1.8 km/h 1.6 km/h 72.8% 0 mm 494 W/m2
08:44 22.4 °C 16.4 °C 1015.8 hPa West 1.9 km/h 1.6 km/h 69% 0 mm 510 W/m2
08:49 23.1 °C 16.7 °C 1015.8 hPa WSW 3.2 km/h 2.1 km/h 67.1% 0 mm 527 W/m2
08:54 23.8 °C 17.4 °C 1015.5 hPa SW 3.1 km/h 3.2 km/h 67.3% 0 mm 542 W/m2
08:59 24.3 °C 17.4 °C 1015.5 hPa South 5.1 km/h 4.8 km/h 65.3% 0 mm 560 W/m2
09:04 24.6 °C 17.5 °C 1015.5 hPa South 3.7 km/h 4.8 km/h 64.6% 0 mm 574 W/m2
09:09 24.9 °C 17.7 °C 1015.5 hPa SSE 6 km/h 4.7 km/h 64.1% 0 mm 590 W/m2
09:14 25.3 °C 17.9 °C 1015.5 hPa East 5.1 km/h 6.4 km/h 63.4% 0 mm 606 W/m2
09:19 25.6 °C 18.1 °C 1015.5 hPa SE 4.5 km/h 6.4 km/h 63.3% 0 mm 621 W/m2
09:24 25.9 °C 18.3 °C 1015.5 hPa South 6.3 km/h 6.4 km/h 62.6% 0 mm 636 W/m2
09:29 26.3 °C 18.2 °C 1015.5 hPa ENE 4.3 km/h 8 km/h 61.1% 0 mm 651 W/m2
09:34 26.6 °C 18.4 °C 1015.5 hPa NE 5.5 km/h 8 km/h 60.7% 0 mm 662 W/m2
09:39 26.9 °C 18.3 °C 1015.5 hPa NNE 4.2 km/h 6.4 km/h 59.2% 0 mm 680 W/m2
09:44 27.1 °C 18.1 °C 1015.5 hPa ENE 5.5 km/h 4.8 km/h 57.9% 0 mm 694 W/m2
09:49 27.3 °C 17.7 °C 1015.5 hPa ENE 6.6 km/h 8 km/h 56% 0 mm 709 W/m2
09:54 27.5 °C 17.5 °C 1015.1 hPa NE 10.1 km/h 9.7 km/h 54.4% 0 mm 723 W/m2
09:59 27.7 °C 17.8 °C 1015.1 hPa NE 9.7 km/h 12.9 km/h 54.7% 0 mm 736 W/m2
10:04 28.2 °C 17.9 °C 1015.1 hPa NE 9.2 km/h 11.3 km/h 53.9% 0 mm 747 W/m2
10:09 28.6 °C 17.8 °C 1015.1 hPa NE 9.7 km/h 11.3 km/h 52.1% 0 mm 757 W/m2
10:14 28.6 °C 17.7 °C 1015.1 hPa ENE 12.4 km/h 11.3 km/h 51.8% 0 mm 769 W/m2
10:19 28.8 °C 18.4 °C 1015.1 hPa NE 9.3 km/h 16.1 km/h 53.4% 0 mm 781 W/m2
10:24 29.2 °C 18.2 °C 1015.1 hPa NE 9.5 km/h 11.3 km/h 51.5% 0 mm 792 W/m2
10:29 29.6 °C 18.3 °C 1015.1 hPa NE 9.2 km/h 11.3 km/h 50.8% 0 mm 800 W/m2
10:34 29.9 °C 18.1 °C 1015.1 hPa NNE 13 km/h 7.6 km/h 48.9% 0 mm 812 W/m2
10:39 30.3 °C 18.1 °C 1015.1 hPa North 9.2 km/h 14.5 km/h 48% 0 mm 818 W/m2
10:44 30.6 °C 18.4 °C 1015.1 hPa NNE 10.5 km/h 11.3 km/h 48.2% 0 mm 833 W/m2
10:49 30.8 °C 18.6 °C 1015.1 hPa NNE 9.2 km/h 11.3 km/h 48% 0 mm 829 W/m2
10:54 31.1 °C 18.9 °C 1014.8 hPa NE 8.4 km/h 11.3 km/h 48.4% 0 mm 694 W/m2
10:59 31.3 °C 19.1 °C 1014.8 hPa NE 11.1 km/h 7.2 km/h 48.2% 0 mm 865 W/m2
11:04 31.5 °C 18.3 °C 1014.8 hPa NNE 11.9 km/h 14.5 km/h 45.7% 0 mm 871 W/m2
11:09 31.7 °C 18.1 °C 1014.8 hPa NNE 13.8 km/h 12.9 km/h 44.5% 0 mm 872 W/m2
11:14 32 °C 18.7 °C 1014.8 hPa NNE 10.5 km/h 14.5 km/h 45.4% 0 mm 812 W/m2
11:19 32.4 °C 18.8 °C 1014.8 hPa NNE 10.6 km/h 12.9 km/h 44.8% 0 mm 892 W/m2
11:24 32.6 °C 18.6 °C 1014.8 hPa North 12.6 km/h 11.3 km/h 43.6% 0 mm 789 W/m2
11:29 32.7 °C 18.7 °C 1014.8 hPa NNE 11.4 km/h 14.5 km/h 43.5% 0 mm 895 W/m2
11:34 33 °C 18.8 °C 1014.8 hPa NNE 11.3 km/h 7.2 km/h 43.2% 0 mm 834 W/m2
11:39 33.2 °C 19 °C 1014.8 hPa NNE 12.6 km/h 11.3 km/h 43.1% 0 mm 619 W/m2
11:44 33.2 °C 18.9 °C 1014.8 hPa NNE 16.6 km/h 17.7 km/h 42.8% 0 mm 487 W/m2
11:49 33.4 °C 18.7 °C 1014.8 hPa North 12.1 km/h 19.3 km/h 41.9% 0 mm 939 W/m2
11:54 33.6 °C 18.9 °C 1014.4 hPa North 15.3 km/h 12.9 km/h 42% 0 mm 954 W/m2
11:59 33.7 °C 18.3 °C 1014.4 hPa North 12.9 km/h 19.3 km/h 40.4% 0 mm 956 W/m2
12:04 33.7 °C 18.6 °C 1014.4 hPa North 12.2 km/h 12.9 km/h 40.8% 0 mm 959 W/m2
12:09 33.8 °C 18.2 °C 1014.4 hPa North 16.7 km/h 14.5 km/h 39.6% 0 mm 966 W/m2
12:14 33.9 °C 17.8 °C 1014.4 hPa North 13.2 km/h 19.3 km/h 38.5% 0 mm 981 W/m2
12:19 33.9 °C 18.1 °C 1014.4 hPa North 12.6 km/h 16.1 km/h 39% 0 mm 992 W/m2
12:24 34.1 °C 17.9 °C 1014.4 hPa NNE 9.8 km/h 12.9 km/h 38.5% 0 mm 997 W/m2
12:29 34.3 °C 18.2 °C 1014.4 hPa NNE 11.3 km/h 9.7 km/h 38.5% 0 mm 1012 W/m2
12:34 34.4 °C 18.1 °C 1014.1 hPa North 8.4 km/h 12.9 km/h 38% 0 mm 692 W/m2
12:39 34 °C 17.8 °C 1014.4 hPa North 11.4 km/h 6.4 km/h 38.2% 0 mm 507 W/m2
12:44 33.6 °C 17.7 °C 1014.1 hPa NNE 10.8 km/h 14.5 km/h 38.8% 0 mm 374 W/m2
12:49 33.3 °C 17.7 °C 1014.1 hPa NE 13.4 km/h 14.5 km/h 39.5% 0 mm 577 W/m2
12:54 33.3 °C 17.7 °C 1014.1 hPa NNE 13.2 km/h 16.1 km/h 39.7% 0 mm 1030 W/m2
12:59 33.5 °C 18.6 °C 1014.1 hPa NNE 15.6 km/h 9.7 km/h 41.4% 0 mm 1008 W/m2
13:04 33.9 °C 17.9 °C 1014.1 hPa NNE 13.8 km/h 17.7 km/h 38.7% 0 mm 973 W/m2
13:09 34.3 °C 18.2 °C 1014.1 hPa NNE 9 km/h 17.7 km/h 38.6% 0 mm 982 W/m2
13:14 34.4 °C 17.9 °C 1014.1 hPa NNE 14.8 km/h 12.9 km/h 37.6% 0 mm 982 W/m2
13:19 34.5 °C 18.3 °C 1014.1 hPa NNE 15.4 km/h 9.3 km/h 38.4% 0 mm 989 W/m2
13:24 34.7 °C 18.1 °C 1014.1 hPa NE 15.4 km/h 19.3 km/h 37.6% 0 mm 995 W/m2
13:29 34.8 °C 17.9 °C 1014.1 hPa NE 15.6 km/h 19.3 km/h 36.9% 0 mm 994 W/m2
13:34 34.9 °C 17.6 °C 1014.1 hPa NNE 11.3 km/h 14.5 km/h 36% 0 mm 1009 W/m2
13:39 35.1 °C 17.7 °C 1014.1 hPa North 19.2 km/h 17.7 km/h 35.8% 0 mm 1001 W/m2
13:44 35.1 °C 18.2 °C 1014.1 hPa North 16.3 km/h 20.9 km/h 36.9% 0 mm 986 W/m2
13:49 35.3 °C 18.6 °C 1013.8 hPa North 15.8 km/h 19.3 km/h 37.5% 0 mm 980 W/m2
13:54 35.4 °C 18.6 °C 1013.8 hPa North 12.6 km/h 19.3 km/h 37% 0 mm 953 W/m2
13:59 35.5 °C 17.3 °C 1013.8 hPa NNE 13.8 km/h 17.7 km/h 34.1% 0 mm 968 W/m2
14:04 34.9 °C 17.2 °C 1013.8 hPa NE 11.9 km/h 16.1 km/h 35.1% 0 mm 959 W/m2
14:09 34.8 °C 17.2 °C 1013.8 hPa ENE 10.8 km/h 16.1 km/h 35.2% 0 mm 738 W/m2
14:14 34.7 °C 17.3 °C 1013.8 hPa NE 11.4 km/h 14.5 km/h 35.6% 0 mm 480 W/m2
14:19 34.5 °C 17.4 °C 1013.8 hPa NNE 7.4 km/h 12.9 km/h 36.4% 0 mm 990 W/m2
14:24 34.6 °C 17.6 °C 1013.8 hPa NNE 9.2 km/h 7.9 km/h 36.5% 0 mm 933 W/m2
14:29 34.4 °C 17.8 °C 1013.8 hPa NNE 12.7 km/h 14.5 km/h 37.4% 0 mm 349 W/m2
14:34 34.1 °C 17.8 °C 1013.8 hPa NE 11.1 km/h 16.1 km/h 38% 0 mm 541 W/m2
14:39 34.1 °C 17.8 °C 1013.8 hPa NNE 12.1 km/h 11.3 km/h 38.3% 0 mm 826 W/m2
14:44 34.3 °C 18.3 °C 1013.8 hPa NNW 7.1 km/h 5.8 km/h 38.7% 0 mm 913 W/m2
14:49 34.7 °C 18.4 °C 1013.4 hPa NNW 8.9 km/h 9.7 km/h 38.2% 0 mm 858 W/m2
14:54 35 °C 18.6 °C 1013.4 hPa NNW 11.4 km/h 12.9 km/h 38% 0 mm 858 W/m2
14:59 35.4 °C 18.4 °C 1013.4 hPa North 15.8 km/h 12.9 km/h 36.8% 0 mm 848 W/m2
15:04 35.4 °C 17.7 °C 1013.4 hPa North 18.8 km/h 20.9 km/h 35% 0 mm 818 W/m2
15:09 35.3 °C 18 °C 1013.4 hPa North 13.2 km/h 20.9 km/h 36% 0 mm 802 W/m2
15:14 35.4 °C 17.7 °C 1013.4 hPa North 13 km/h 14.5 km/h 35.1% 0 mm 809 W/m2
15:19 35.6 °C 18.1 °C 1013.4 hPa North 13.2 km/h 19.3 km/h 35.9% 0 mm 800 W/m2
15:24 35.7 °C 17.9 °C 1013.4 hPa North 12.7 km/h 14.5 km/h 35.2% 0 mm 786 W/m2
15:29 35.7 °C 18 °C 1013.4 hPa North 15.4 km/h 14.5 km/h 35.3% 0 mm 766 W/m2
15:34 35.8 °C 18.1 °C 1013.4 hPa North 15.4 km/h 11.1 km/h 35.2% 0 mm 744 W/m2
15:39 35.9 °C 18 °C 1013.4 hPa NNE 15.3 km/h 17.7 km/h 34.9% 0 mm 716 W/m2
15:44 35.9 °C 17.4 °C 1013.1 hPa NNE 14.8 km/h 22.5 km/h 33.6% 0 mm 679 W/m2
15:49 35.7 °C 17.4 °C 1013.1 hPa NE 14.3 km/h 19.3 km/h 34.1% 0 mm 657 W/m2
15:54 35.6 °C 17.6 °C 1013.1 hPa NNE 14.8 km/h 20.9 km/h 34.6% 0 mm 637 W/m2
15:58 35.7 °C 17.7 °C 1013.1 hPa NNE 8 km/h 19.3 km/h 34.7% 0 mm 622 W/m2
16:04 35.9 °C 17.3 °C 1013.1 hPa NNE 8.5 km/h 8 km/h 33.6% 0 mm 614 W/m2
16:09 35.7 °C 17 °C 1013.1 hPa NNE 12.7 km/h 7.2 km/h 33.3% 0 mm 613 W/m2
16:14 35.4 °C 17.2 °C 1013.1 hPa ENE 8.4 km/h 6.1 km/h 34% 0 mm 598 W/m2
16:19 35.6 °C 17.4 °C 1013.1 hPa NE 10 km/h 11.3 km/h 34.2% 0 mm 581 W/m2
16:24 35.7 °C 17.5 °C 1013.1 hPa North 9.5 km/h 6.8 km/h 34.2% 0 mm 561 W/m2
16:29 35.8 °C 17.6 °C 1013.1 hPa North 6.8 km/h 11.3 km/h 34% 0 mm 546 W/m2
16:34 35.8 °C 17.6 °C 1013.1 hPa North 13.5 km/h 8.2 km/h 34.1% 0 mm 525 W/m2
16:39 35.7 °C 17.8 °C 1013.1 hPa North 11.3 km/h 16.1 km/h 34.9% 0 mm 502 W/m2
16:44 35.7 °C 17.5 °C 1012.8 hPa North 9.5 km/h 12.9 km/h 34.2% 0 mm 485 W/m2
16:49 35.7 °C 17.6 °C 1012.8 hPa NNW 6.8 km/h 3.5 km/h 34.5% 0 mm 476 W/m2
16:54 35.6 °C 17.6 °C 1012.8 hPa North 8 km/h 8 km/h 34.7% 0 mm 467 W/m2
16:59 35.5 °C 18.2 °C 1012.8 hPa NE 10.6 km/h 7.6 km/h 36.1% 0 mm 449 W/m2
17:04 35.5 °C 17.7 °C 1012.8 hPa NNE 12.1 km/h 8.2 km/h 35% 0 mm 423 W/m2
17:09 35.4 °C 17.6 °C 1012.8 hPa North 10.1 km/h 14.5 km/h 35% 0 mm 402 W/m2
17:14 35.3 °C 17.3 °C 1012.8 hPa North 12.4 km/h 12.9 km/h 34.6% 0 mm 387 W/m2
17:19 35.2 °C 17 °C 1012.8 hPa North 12.1 km/h 12.9 km/h 34.2% 0 mm 378 W/m2
17:24 35 °C 17.4 °C 1012.8 hPa North 12.9 km/h 12.9 km/h 35.3% 0 mm 376 W/m2
17:29 35.1 °C 17.6 °C 1012.8 hPa North 8.2 km/h 12.9 km/h 35.6% 0 mm 380 W/m2
17:34 35.2 °C 17 °C 1012.8 hPa North 8.5 km/h 11.3 km/h 34.1% 0 mm 367 W/m2
17:39 35.3 °C 16.9 °C 1012.8 hPa NNW 8.9 km/h 9.7 km/h 33.6% 0 mm 354 W/m2
17:44 35.3 °C 16.9 °C 1012.8 hPa NNW 10.1 km/h 9.7 km/h 33.7% 0 mm 328 W/m2
17:49 35.2 °C 17.2 °C 1012.8 hPa North 10.5 km/h 11.3 km/h 34.5% 0 mm 298 W/m2
17:54 35.2 °C 17.1 °C 1012.8 hPa North 9.3 km/h 11.3 km/h 34.3% 0 mm 279 W/m2
17:59 35.2 °C 17.4 °C 1012.8 hPa North 10.5 km/h 11.3 km/h 35% 0 mm 255 W/m2
18:04 35.1 °C 17.1 °C 1012.8 hPa North 9.2 km/h 12.9 km/h 34.4% 0 mm 237 W/m2
18:09 35.1 °C 16.9 °C 1012.8 hPa North 10 km/h 9.7 km/h 34% 0 mm 217 W/m2
18:14 35.1 °C 16.8 °C 1012.8 hPa North 12.2 km/h 12.9 km/h 34% 0 mm 200 W/m2
18:19 34.8 °C 16.7 °C 1012.8 hPa North 8.7 km/h 16.1 km/h 34% 0 mm 186 W/m2
18:24 34.7 °C 16.6 °C 1012.8 hPa North 7.1 km/h 9.7 km/h 34% 0 mm 166 W/m2
18:29 34.6 °C 16.4 °C 1012.8 hPa North 9.2 km/h 9.7 km/h 34% 0 mm 157 W/m2
18:34 34.4 °C 16.3 °C 1012.8 hPa North 8 km/h 11.3 km/h 34% 0 mm 146 W/m2
18:39 34.3 °C 16.2 °C 1012.8 hPa North 11.1 km/h 9.7 km/h 34% 0 mm 134 W/m2
18:44 34.1 °C 16 °C 1012.8 hPa North 10.8 km/h 12.9 km/h 34% 0 mm 121 W/m2
18:49 33.9 °C 16.2 °C 1012.8 hPa North 8.4 km/h 12.9 km/h 34.7% 0 mm 106 W/m2
18:54 33.8 °C 16.3 °C 1012.8 hPa North 7.6 km/h 9.7 km/h 35% 0 mm 93 W/m2
18:59 33.7 °C 16.6 °C 1012.8 hPa North 7.4 km/h 9.7 km/h 36.1% 0 mm 81 W/m2
19:04 33.4 °C 16.7 °C 1012.8 hPa North 6.1 km/h 4.7 km/h 36.9% 0 mm 68 W/m2
19:09 33.3 °C 16.4 °C 1012.8 hPa North 6.8 km/h 6.4 km/h 36.7% 0 mm 55 W/m2
19:14 32.9 °C 16.3 °C 1012.8 hPa North 7.4 km/h 9.7 km/h 36.8% 0 mm 44 W/m2
19:19 32.7 °C 16.1 °C 1012.8 hPa NNW 7.6 km/h 11.3 km/h 37% 0 mm 34 W/m2
19:24 32.4 °C 16 °C 1012.8 hPa NNW 5.1 km/h 9.7 km/h 37.3% 0 mm 28 W/m2
19:29 32.2 °C 16 °C 1012.8 hPa NW 5 km/h 4.8 km/h 38% 0 mm 22 W/m2
19:34 31.7 °C 15.9 °C 1012.8 hPa NW 5 km/h 4.8 km/h 38.6% 0 mm 16 W/m2
19:39 31.4 °C 15.7 °C 1012.8 hPa NW 6.3 km/h 6.4 km/h 38.7% 0 mm 12 W/m2
19:44 31.1 °C 15.6 °C 1012.8 hPa NW 5.6 km/h 8 km/h 39.3% 0 mm 9 W/m2
19:49 30.8 °C 15.2 °C 1012.8 hPa NNW 6.4 km/h 6.4 km/h 39% 0 mm 6 W/m2
19:54 30.6 °C 15.4 °C 1012.8 hPa NNW 5.8 km/h 8 km/h 39.9% 0 mm 4 W/m2
19:59 30.2 °C 15.8 °C 1012.8 hPa North 3.2 km/h 6.4 km/h 41.8% 0 mm 2 W/m2
20:04 30.1 °C 15.8 °C 1012.8 hPa NNW 3.1 km/h 3.2 km/h 42.2% 0 mm 1 W/m2
20:09 29.8 °C 15.9 °C 1012.8 hPa West 3.1 km/h 3.2 km/h 43.1% 0 mm 0 W/m2
20:14 29.5 °C 15.9 °C 1012.8 hPa SW 3.4 km/h 3.2 km/h 44% 0 mm 0 W/m2
20:19 29.2 °C 15.9 °C 1012.8 hPa WSW 5 km/h 4.7 km/h 44.8% 0 mm 0 W/m2
20:24 28.8 °C 15.7 °C 1012.8 hPa WSW 4.5 km/h 6.4 km/h 45% 0 mm 0 W/m2
20:29 28.4 °C 16.1 °C 1012.8 hPa WSW 3.9 km/h 4.8 km/h 47.3% 0 mm 0 W/m2
20:34 28.2 °C 16.1 °C 1012.8 hPa WSW 5.5 km/h 4 km/h 48% 0 mm 0 W/m2
20:39 27.9 °C 15.8 °C 1013.1 hPa WSW 3.7 km/h 4.8 km/h 48% 0 mm 0 W/m2
20:44 27.6 °C 15.7 °C 1013.1 hPa WSW 3.9 km/h 3.2 km/h 48.2% 0 mm 0 W/m2
20:49 27.2 °C 15.7 °C 1013.1 hPa SW 4.3 km/h 4.8 km/h 49.2% 0 mm 0 W/m2
20:54 26.9 °C 15.6 °C 1013.1 hPa SSW 5.6 km/h 5 km/h 50% 0 mm 0 W/m2
20:59 26.5 °C 15.8 °C 1013.1 hPa SSW 5.3 km/h 6.4 km/h 51.8% 0 mm 0 W/m2
21:04 26.3 °C 15.7 °C 1013.1 hPa SSW 4.2 km/h 6.4 km/h 52.1% 0 mm 0 W/m2
21:09 26 °C 15.7 °C 1013.1 hPa SSW 3.9 km/h 4.8 km/h 53% 0 mm 0 W/m2
21:14 25.7 °C 15.4 °C 1013.4 hPa South 5.1 km/h 4.8 km/h 53.1% 0 mm 0 W/m2
21:19 25.3 °C 15.3 °C 1013.4 hPa SSE 5.1 km/h 4 km/h 54% 0 mm 0 W/m2
21:24 25.2 °C 15.2 °C 1013.4 hPa SSE 3.5 km/h 6.4 km/h 54% 0 mm 0 W/m2
21:29 25 °C 15.1 °C 1013.4 hPa ESE 1.9 km/h 3.2 km/h 54% 0 mm 0 W/m2
21:34 24.9 °C 15.1 °C 1013.4 hPa NNW 3.2 km/h 1.4 km/h 54.6% 0 mm 0 W/m2
21:39 24.8 °C 15.2 °C 1013.8 hPa North 1.3 km/h 0.6 km/h 55% 0 mm 0 W/m2
21:44 24.7 °C 15.2 °C 1013.8 hPa NNE 1 km/h 3.2 km/h 55.4% 0 mm 0 W/m2
21:49 24.5 °C 15.3 °C 1013.8 hPa North 1.6 km/h 1.6 km/h 56.4% 0 mm 0 W/m2
21:54 24.3 °C 15.3 °C 1013.8 hPa NNW 3.2 km/h 2.1 km/h 57.1% 0 mm 0 W/m2
21:59 24.2 °C 15.4 °C 1013.8 hPa WNW 1.3 km/h 3.2 km/h 58% 0 mm 0 W/m2
22:04 24 °C 15.3 °C 1013.8 hPa WNW 1.4 km/h 1.8 km/h 58.3% 0 mm 0 W/m2
22:09 23.8 °C 15.3 °C 1013.8 hPa WNW 3.5 km/h 3.5 km/h 59.1% 0 mm 0 W/m2
22:14 23.5 °C 15.3 °C 1013.8 hPa West 1 km/h 4.8 km/h 60% 0 mm 0 W/m2
22:19 23.3 °C 15.6 °C 1013.8 hPa West 0.6 km/h 1.6 km/h 61.9% 0 mm 0 W/m2
22:24 23.2 °C 15.4 °C 1013.8 hPa South 0.8 km/h 1.6 km/h 62% 0 mm 0 W/m2
22:29 22.9 °C 15.1 °C 1013.8 hPa SSW 4 km/h 2.9 km/h 61.4% 0 mm 0 W/m2
22:34 22.8 °C 15.2 °C 1013.8 hPa SW 4.3 km/h 2.9 km/h 62% 0 mm 0 W/m2
22:39 22.8 °C 15.1 °C 1013.8 hPa South 3.7 km/h 4.8 km/h 62% 0 mm 0 W/m2
22:44 22.7 °C 15.2 °C 1013.8 hPa South 4.5 km/h 4.3 km/h 62.4% 0 mm 0 W/m2
22:49 22.7 °C 15.1 °C 1013.8 hPa South 5 km/h 6.4 km/h 62% 0 mm 0 W/m2
22:54 22.6 °C 14.9 °C 1013.8 hPa SSW 3.2 km/h 4.8 km/h 62% 0 mm 0 W/m2
22:59 22.6 °C 14.9 °C 1013.8 hPa SSW 5.8 km/h 4.3 km/h 62% 0 mm 0 W/m2
23:04 22.5 °C 14.8 °C 1013.8 hPa South 5.1 km/h 6.4 km/h 62% 0 mm 0 W/m2
23:09 22.5 °C 14.8 °C 1013.8 hPa South 5 km/h 6.4 km/h 62% 0 mm 0 W/m2
23:14 22.5 °C 14.8 °C 1013.8 hPa SSE 3.2 km/h 6.4 km/h 62% 0 mm 0 W/m2
23:19 22.6 °C 14.9 °C 1014.1 hPa NE 3.2 km/h 3.2 km/h 62% 0 mm 0 W/m2
23:24 22.6 °C 14.9 °C 1014.1 hPa NNE 2.6 km/h 3.5 km/h 62% 0 mm 0 W/m2
23:29 22.7 °C 15.4 °C 1014.1 hPa NE 11.3 km/h 6.4 km/h 63.5% 0 mm 0 W/m2
23:34 23 °C 15.9 °C 1014.1 hPa ESE 9.3 km/h 11.3 km/h 64.4% 0 mm 0 W/m2
23:39 23.1 °C 15.8 °C 1014.1 hPa SE 5.3 km/h 9.7 km/h 64% 0 mm 0 W/m2
23:44 22.9 °C 15.6 °C 1014.1 hPa SW 5.6 km/h 6.4 km/h 63.5% 0 mm 0 W/m2
23:49 22.7 °C 15.5 °C 1014.1 hPa West 6 km/h 6.4 km/h 64% 0 mm 0 W/m2
23:54 22.6 °C 15.3 °C 1013.8 hPa West 6.3 km/h 6.4 km/h 63.3% 0 mm 0 W/m2
23:59 22.6 °C 15.3 °C 1013.8 hPa West 7.7 km/h 8 km/h 63.5% 0 mm 0 W/m2
Knjazevac, Serbia
Compliments of Weather Underground - 4 mb